METAR Data
IDs: Format: Raw Decoded Include TAF

Data at: 0025 UTC 30 May 2020

METAR for:KSPB (Scappoose Ind Airpar, OR, US)
Text:KSPB 292353Z AUTO 35010G17KT 10SM CLR 27/13 A2981 RMK AO2 SLP095 T02720133 10278 20222 56009
Temperature: 27.2°C ( 81°F)
Dewpoint: 13.3°C ( 56°F) [RH = 42%]
Pressure (altimeter):29.81 inches Hg (1009.6 mb) [Sea level pressure: 1009.5 mb]
Winds:from the N (350 degrees) at 12 MPH (10 knots; 5.1 m/s) gusting to 20 MPH (17 knots; 8.7 m/s)
Visibility:10 or more sm (16+ km)
Ceiling:at least 12,000 feet AGL
Clouds:sky clear below 12,000 feet AGL
QC Flag:automated observation with no human augmentation